createdAt,value
2023-05-10T00:00:13.282Z,13.70
2023-05-10T00:02:40.108Z,10.60
2023-05-10T00:05:07.729Z,11.38
2023-05-10T00:07:34.092Z,11.27
2023-05-10T00:10:00.617Z,10.05
2023-05-10T00:12:27.026Z,11.90
2023-05-10T00:14:53.388Z,10.25
2023-05-10T00:17:19.852Z,12.07
2023-05-10T00:19:46.287Z,14.53
2023-05-10T00:22:12.712Z,14.70
2023-05-10T00:24:39.066Z,11.55
2023-05-10T00:27:05.845Z,14.98
2023-05-10T00:29:32.713Z,16.30
2023-05-10T00:31:59.311Z,15.33
2023-05-10T00:34:25.776Z,19.55
2023-05-10T00:36:52.192Z,21.02
2023-05-10T00:39:18.567Z,18.70
2023-05-10T00:41:44.959Z,26.27
2023-05-10T00:44:11.410Z,28.23
2023-05-10T00:46:37.976Z,28.42
2023-05-10T00:49:05.376Z,23.35
2023-05-10T00:51:32.267Z,26.25
2023-05-10T00:53:59.399Z,33.60
2023-05-10T00:56:26.396Z,32.10
2023-05-10T00:58:52.947Z,34.03
2023-05-10T01:01:20.542Z,35.50
2023-05-10T01:03:47.963Z,38.25
2023-05-10T01:06:14.393Z,39.75
2023-05-10T01:08:41.848Z,35.43
2023-05-10T01:11:08.385Z,37.35
2023-05-10T01:13:38.338Z,35.72
2023-05-10T01:16:05.879Z,33.47
2023-05-10T01:18:35.918Z,38.90
2023-05-10T01:21:20.000Z,35.70
2023-05-10T01:23:52.556Z,36.92
2023-05-10T01:26:40.227Z,34.53
2023-05-10T01:29:30.267Z,38.55
2023-05-10T01:32:09.955Z,32.05
2023-05-10T01:34:47.867Z,36.40
2023-05-10T01:37:22.575Z,37.00
2023-05-10T01:40:27.002Z,37.33
2023-05-10T01:43:00.872Z,35.40
2023-05-10T01:45:37.823Z,41.20
2023-05-10T01:48:10.602Z,36.87
2023-05-10T01:50:41.171Z,40.58
2023-05-10T01:53:10.731Z,37.03
2023-05-10T01:55:54.830Z,34.63
2023-05-10T01:58:26.158Z,39.03
2023-05-10T02:00:54.703Z,37.90
2023-05-10T02:03:26.181Z,37.65
2023-05-10T02:05:55.404Z,40.53
2023-05-10T02:08:23.492Z,38.55
2023-05-10T02:10:53.388Z,38.75
2023-05-10T02:13:20.794Z,33.67
2023-05-10T02:15:52.295Z,36.60
2023-05-10T02:18:19.388Z,34.75
2023-05-10T02:20:47.827Z,36.72
2023-05-10T02:23:16.086Z,38.47
2023-05-10T02:25:44.229Z,38.87
2023-05-10T02:28:12.267Z,35.38
2023-05-10T02:30:39.415Z,40.70
2023-05-10T02:33:06.757Z,35.67
2023-05-10T02:35:34.441Z,38.40
2023-05-10T02:38:01.755Z,37.03
2023-05-10T02:40:29.330Z,40.85
2023-05-10T02:42:57.828Z,39.15
2023-05-10T02:45:27.383Z,36.17
2023-05-10T02:47:53.910Z,39.65
2023-05-10T02:50:21.282Z,40.83
2023-05-10T02:52:52.812Z,40.70
2023-05-10T02:55:23.656Z,37.55
2023-05-10T02:57:57.726Z,40.13
2023-05-10T03:00:25.815Z,39.28
2023-05-10T03:02:52.488Z,38.90
2023-05-10T03:05:19.640Z,43.42
2023-05-10T03:07:47.115Z,46.15
2023-05-10T03:10:13.967Z,48.80
2023-05-10T03:12:53.617Z,51.03
2023-05-10T03:15:38.453Z,50.50
2023-05-10T03:18:07.878Z,55.20
2023-05-10T03:20:42.574Z,50.63
2023-05-10T03:23:20.069Z,51.10
2023-05-10T03:25:48.894Z,52.83
2023-05-10T03:28:17.086Z,52.73
2023-05-10T03:30:44.750Z,58.28
2023-05-10T03:33:11.690Z,59.53
2023-05-10T03:35:38.126Z,54.58
2023-05-10T03:38:04.581Z,53.45
2023-05-10T03:40:33.057Z,57.37
2023-05-10T03:43:00.495Z,56.95
2023-05-10T03:45:27.384Z,53.78
2023-05-10T03:47:54.871Z,56.17
2023-05-10T03:50:21.954Z,50.85
2023-05-10T03:52:48.753Z,60.17
2023-05-10T03:55:15.356Z,57.30
2023-05-10T03:57:41.774Z,54.75
2023-05-10T04:00:09.156Z,58.33
2023-05-10T04:02:35.685Z,55.13
2023-05-10T04:05:02.533Z,53.80
2023-05-10T04:07:28.978Z,52.28
2023-05-10T04:09:55.423Z,52.75
2023-05-10T04:12:21.864Z,55.90
2023-05-10T04:14:48.391Z,52.90
2023-05-10T04:17:14.864Z,47.30
2023-05-10T04:19:41.359Z,47.60
2023-05-10T04:22:07.797Z,46.88
2023-05-10T04:24:34.145Z,51.60
2023-05-10T04:27:00.592Z,49.95
2023-05-10T04:29:27.611Z,45.80
2023-05-10T04:31:54.434Z,47.78
2023-05-10T04:34:21.996Z,52.15
2023-05-10T04:36:48.451Z,50.03
2023-05-10T04:39:14.953Z,49.72
2023-05-10T04:41:41.385Z,45.70
2023-05-10T04:44:07.948Z,51.72
2023-05-10T04:46:34.425Z,47.88
2023-05-10T04:49:00.829Z,47.42
2023-05-10T04:51:27.202Z,50.45
2023-05-10T04:54:05.099Z,46.17
2023-05-10T04:56:33.196Z,47.72
2023-05-10T04:58:59.568Z,50.55
2023-05-10T05:01:26.109Z,45.58
2023-05-10T05:03:53.854Z,48.55
2023-05-10T05:06:21.873Z,46.77
2023-05-10T05:08:50.173Z,53.97
2023-05-10T05:11:17.572Z,53.42
2023-05-10T05:13:44.233Z,50.10
2023-05-10T05:16:11.813Z,46.22
2023-05-10T05:18:38.363Z,46.47
2023-05-10T05:21:14.679Z,50.78
2023-05-10T05:23:41.148Z,53.90
2023-05-10T05:26:07.478Z,48.22
2023-05-10T05:28:37.968Z,52.58
2023-05-10T05:31:05.845Z,52.73
2023-05-10T05:33:32.415Z,56.70
2023-05-10T05:36:01.798Z,54.90
2023-05-10T05:38:28.190Z,55.17
2023-05-10T05:40:54.659Z,54.13
2023-05-10T05:43:21.104Z,52.10
2023-05-10T05:45:47.660Z,56.35
2023-05-10T05:48:14.319Z,48.30
2023-05-10T05:50:40.707Z,57.38
2023-05-10T05:53:07.118Z,43.97
2023-05-10T05:55:33.600Z,36.43
2023-05-10T05:57:59.996Z,43.55
2023-05-10T06:00:26.919Z,51.45
2023-05-10T06:02:53.444Z,49.53
2023-05-10T06:05:21.142Z,46.90
2023-05-10T06:07:47.502Z,40.47
2023-05-10T06:10:13.942Z,39.38
2023-05-10T06:12:40.468Z,42.47
2023-05-10T06:15:07.582Z,38.85
2023-05-10T06:17:34.046Z,42.58
2023-05-10T06:20:00.844Z,38.50
2023-05-10T06:22:27.285Z,41.40
2023-05-10T06:24:53.708Z,38.33
2023-05-10T06:27:20.072Z,43.97
2023-05-10T06:29:46.532Z,36.72
2023-05-10T06:32:12.901Z,36.80
2023-05-10T06:34:39.334Z,36.67
2023-05-10T06:37:05.844Z,38.47
2023-05-10T06:39:32.218Z,36.13
2023-05-10T06:41:58.589Z,32.17
2023-05-10T06:44:25.002Z,32.27
2023-05-10T06:46:52.061Z,36.45
2023-05-10T06:49:18.795Z,32.33
2023-05-10T06:51:45.992Z,31.55
2023-05-10T06:54:12.412Z,32.25
2023-05-10T06:56:38.882Z,28.07
2023-05-10T06:59:05.381Z,30.02
2023-05-10T07:01:31.923Z,25.10
2023-05-10T07:03:58.379Z,25.33
2023-05-10T07:06:33.271Z,20.85
2023-05-10T07:09:01.321Z,23.00
2023-05-10T07:11:27.819Z,24.35
2023-05-10T07:13:54.207Z,18.40
2023-05-10T07:16:20.766Z,16.77
2023-05-10T07:18:47.308Z,20.85
2023-05-10T07:21:13.771Z,18.27
2023-05-10T07:23:40.180Z,18.05
2023-05-10T07:26:06.815Z,16.75
2023-05-10T07:28:33.284Z,14.65
2023-05-10T07:30:59.668Z,15.68
2023-05-10T07:33:26.051Z,14.80
2023-05-10T07:35:52.610Z,15.63
2023-05-10T07:38:19.038Z,15.13
2023-05-10T07:40:45.485Z,16.98
2023-05-10T07:43:11.928Z,15.07
2023-05-10T07:45:38.395Z,19.30
2023-05-10T07:48:04.941Z,17.48
2023-05-10T07:50:31.607Z,14.68
2023-05-10T07:52:58.214Z,14.32
2023-05-10T07:55:24.623Z,18.70
2023-05-10T07:57:51.057Z,14.47
2023-05-10T08:00:19.649Z,15.35
2023-05-10T08:02:46.368Z,12.27
2023-05-10T08:05:12.973Z,15.50
2023-05-10T08:07:39.383Z,14.48
2023-05-10T08:10:06.742Z,13.00
2023-05-10T08:12:33.201Z,14.15
2023-05-10T08:14:59.615Z,11.35
2023-05-10T08:17:26.143Z,12.20
2023-05-10T08:19:52.559Z,12.32
2023-05-10T08:22:18.955Z,12.57
2023-05-10T08:24:45.490Z,15.90
2023-05-10T08:27:11.985Z,14.02
2023-05-10T08:29:49.468Z,12.95
2023-05-10T08:32:16.970Z,13.88
2023-05-10T08:34:43.365Z,15.27
2023-05-10T08:37:09.822Z,14.80
2023-05-10T08:39:36.566Z,13.90
2023-05-10T08:42:05.464Z,16.63
2023-05-10T08:44:35.112Z,14.80
2023-05-10T08:47:05.229Z,17.67
2023-05-10T08:49:33.787Z,14.38
2023-05-10T08:52:04.523Z,14.60
2023-05-10T08:54:33.240Z,14.32
2023-05-10T08:56:59.765Z,13.02
2023-05-10T08:59:26.407Z,15.87
2023-05-10T09:01:54.698Z,17.08
2023-05-10T09:04:21.962Z,13.68
2023-05-10T09:06:48.876Z,13.20
2023-05-10T09:09:17.056Z,14.35
2023-05-10T09:11:44.383Z,13.97
2023-05-10T09:14:11.211Z,11.07
2023-05-10T09:16:37.762Z,11.23
2023-05-10T09:19:04.532Z,9.02
2023-05-10T09:21:32.369Z,9.25
2023-05-10T09:24:03.946Z,10.47
2023-05-10T09:26:30.310Z,9.43
2023-05-10T09:28:58.662Z,9.18
2023-05-10T09:31:28.418Z,8.20
2023-05-10T09:33:54.860Z,10.95
2023-05-10T09:36:21.243Z,7.00
2023-05-10T09:38:49.157Z,8.23
2023-05-10T09:41:24.131Z,8.13
2023-05-10T09:43:51.255Z,7.97
2023-05-10T09:46:17.740Z,6.00
2023-05-10T09:48:48.569Z,7.87
2023-05-10T09:51:25.744Z,6.63
2023-05-10T09:54:14.493Z,5.63
2023-05-10T09:56:41.868Z,5.20
2023-05-10T09:59:12.893Z,5.80
2023-05-10T10:01:40.249Z,5.80
2023-05-10T10:04:08.654Z,6.03
2023-05-10T10:06:39.989Z,4.60
2023-05-10T10:09:07.782Z,4.93
2023-05-10T10:11:38.916Z,4.47
2023-05-10T10:14:06.347Z,6.30
2023-05-10T10:16:33.615Z,5.45
2023-05-10T10:19:00.301Z,5.25
2023-05-10T10:21:27.735Z,6.70
2023-05-10T10:23:54.157Z,5.38
2023-05-10T10:26:22.003Z,6.53
2023-05-10T10:29:09.802Z,6.43
2023-05-10T10:32:21.792Z,6.55
2023-05-10T10:34:48.646Z,7.95
2023-05-10T10:37:15.198Z,7.15
2023-05-10T10:39:41.577Z,8.77
2023-05-10T10:42:08.038Z,7.72
2023-05-10T10:44:36.548Z,8.60
2023-05-10T10:47:25.935Z,8.63
2023-05-10T10:50:04.566Z,9.48
2023-05-10T10:52:43.809Z,8.33
2023-05-10T10:55:23.382Z,5.78
2023-05-10T10:57:49.814Z,7.40
2023-05-10T11:00:23.430Z,5.53
2023-05-10T11:03:07.945Z,9.50
2023-05-10T11:05:38.971Z,6.23
2023-05-10T11:08:10.235Z,7.25
2023-05-10T11:10:36.926Z,7.05
2023-05-10T11:13:05.471Z,9.25
2023-05-10T11:15:40.433Z,9.73
2023-05-10T11:18:21.554Z,6.50
2023-05-10T11:20:52.446Z,6.18
2023-05-10T11:23:20.185Z,6.47
2023-05-10T11:25:46.976Z,10.32
2023-05-10T11:28:13.839Z,5.72
2023-05-10T11:30:41.840Z,7.30
2023-05-10T11:33:09.291Z,8.20
2023-05-10T11:35:43.018Z,6.53
2023-05-10T11:38:11.417Z,6.80
2023-05-10T11:40:38.616Z,5.93
2023-05-10T11:43:06.689Z,7.23
2023-05-10T11:45:34.344Z,7.78
2023-05-10T11:48:01.384Z,8.20
2023-05-10T11:50:28.305Z,6.20
2023-05-10T11:52:58.049Z,4.88
2023-05-10T11:55:25.281Z,7.60
2023-05-10T11:57:55.746Z,5.20
2023-05-10T12:00:22.732Z,6.28
2023-05-10T12:02:50.170Z,5.00
2023-05-10T12:05:17.723Z,5.70
2023-05-10T12:07:44.360Z,4.50
2023-05-10T12:10:16.203Z,5.68
2023-05-10T12:12:45.216Z,5.40
2023-05-10T12:15:23.260Z,5.63
2023-05-10T12:17:50.611Z,5.88
2023-05-10T12:20:17.543Z,5.13
2023-05-10T12:22:52.330Z,3.47
2023-05-10T12:25:19.719Z,3.15
2023-05-10T12:27:54.716Z,3.22
2023-05-10T12:30:29.354Z,6.40
2023-05-10T12:33:18.977Z,4.37
2023-05-10T12:35:51.017Z,4.10
2023-05-10T12:38:38.780Z,2.95
2023-05-10T12:41:07.505Z,4.00
2023-05-10T12:43:35.035Z,2.60
2023-05-10T12:46:12.632Z,4.13
2023-05-10T12:48:40.665Z,7.20
2023-05-10T12:51:10.237Z,4.45
2023-05-10T12:53:37.567Z,3.40
2023-05-10T12:56:04.185Z,3.38
2023-05-10T12:58:35.978Z,4.13
2023-05-10T13:01:03.079Z,3.20
2023-05-10T13:03:29.619Z,4.57
2023-05-10T13:05:56.035Z,6.25
2023-05-10T13:08:22.419Z,6.88
2023-05-10T13:10:49.233Z,2.50
2023-05-10T13:13:16.613Z,5.38
2023-05-10T13:15:43.049Z,3.70
2023-05-10T13:18:09.448Z,5.68
2023-05-10T13:20:36.014Z,4.45
2023-05-10T13:23:03.516Z,4.93
2023-05-10T13:25:30.021Z,4.95
2023-05-10T13:27:56.474Z,7.07
2023-05-10T13:30:23.061Z,5.72
2023-05-10T13:32:49.500Z,7.40
2023-05-10T13:35:16.455Z,4.60
2023-05-10T13:37:43.201Z,6.82
2023-05-10T13:40:09.829Z,5.28
2023-05-10T13:42:36.257Z,6.40
2023-05-10T13:45:02.973Z,6.25
2023-05-10T13:47:29.567Z,5.03
2023-05-10T13:49:56.157Z,5.35
2023-05-10T13:52:22.660Z,5.32
2023-05-10T13:54:49.130Z,7.03
2023-05-10T13:57:17.577Z,5.88
2023-05-10T13:59:43.977Z,6.57
2023-05-10T14:02:10.423Z,10.93
2023-05-10T14:04:36.817Z,5.93
2023-05-10T14:07:03.264Z,6.60
2023-05-10T14:09:29.655Z,7.40
2023-05-10T14:11:56.771Z,7.20
2023-05-10T14:14:23.411Z,7.65
2023-05-10T14:16:49.870Z,7.25
2023-05-10T14:19:16.261Z,5.93
2023-05-10T14:21:42.675Z,6.72
2023-05-10T14:24:09.074Z,6.77
2023-05-10T14:26:35.558Z,8.35
2023-05-10T14:29:02.334Z,6.80
2023-05-10T14:31:31.097Z,8.38
2023-05-10T14:33:58.536Z,6.15
2023-05-10T14:36:24.981Z,11.03
2023-05-10T14:38:51.895Z,7.97
2023-05-10T14:41:19.016Z,9.70
2023-05-10T14:43:45.439Z,9.27
2023-05-10T14:46:12.038Z,9.20
2023-05-10T14:48:38.579Z,9.80
2023-05-10T14:51:04.949Z,8.18
2023-05-10T14:53:31.610Z,7.75
2023-05-10T14:55:58.389Z,8.00
2023-05-10T14:58:24.770Z,8.25
2023-05-10T15:00:51.337Z,8.70
2023-05-10T15:03:18.314Z,9.57
2023-05-10T15:05:45.315Z,10.25
2023-05-10T15:08:13.358Z,9.73
2023-05-10T15:10:40.491Z,8.13
2023-05-10T15:13:06.927Z,9.70
2023-05-10T15:15:33.508Z,7.68
2023-05-10T15:18:00.031Z,7.65
2023-05-10T15:20:26.758Z,10.20
2023-05-10T15:22:53.182Z,8.27
2023-05-10T15:25:19.678Z,11.10
2023-05-10T15:27:46.486Z,8.05
2023-05-10T15:30:13.467Z,11.45
2023-05-10T15:32:41.044Z,8.50
2023-05-10T15:35:09.494Z,10.65
2023-05-10T15:37:36.566Z,10.47
2023-05-10T15:40:06.149Z,9.05
2023-05-10T15:42:32.853Z,9.52
2023-05-10T15:44:59.764Z,9.57
2023-05-10T15:47:28.327Z,8.85
2023-05-10T15:49:57.479Z,7.13
2023-05-10T15:52:24.274Z,6.72
2023-05-10T15:54:51.602Z,7.45
2023-05-10T15:57:18.040Z,7.68
2023-05-10T15:59:45.843Z,7.18
2023-05-10T16:02:12.344Z,8.07
2023-05-10T16:04:39.124Z,9.60
2023-05-10T16:07:05.660Z,8.90
2023-05-10T16:09:32.083Z,7.50
2023-05-10T16:11:58.527Z,6.82
2023-05-10T16:14:24.927Z,7.17
2023-05-10T16:16:51.594Z,6.78
2023-05-10T16:19:18.616Z,8.43
2023-05-10T16:21:45.374Z,9.25
2023-05-10T16:24:12.173Z,9.48
2023-05-10T16:26:40.917Z,7.50
2023-05-10T16:29:10.374Z,5.80
2023-05-10T16:31:36.867Z,7.15
2023-05-10T16:34:03.499Z,6.57
2023-05-10T16:36:30.269Z,10.45
2023-05-10T16:38:56.768Z,13.87
2023-05-10T16:41:23.153Z,10.25
2023-05-10T16:43:50.085Z,9.13
2023-05-10T16:46:16.653Z,9.30
2023-05-10T16:48:43.181Z,16.80
2023-05-10T16:51:09.714Z,8.37
2023-05-10T16:53:36.325Z,9.63
2023-05-10T16:56:03.451Z,7.38
2023-05-10T16:58:29.890Z,6.93
2023-05-10T17:00:56.327Z,4.85
2023-05-10T17:03:22.930Z,8.23
2023-05-10T17:05:49.433Z,4.82
2023-05-10T17:08:16.519Z,6.55
2023-05-10T17:10:43.234Z,5.38
2023-05-10T17:13:10.631Z,6.13
2023-05-10T17:15:37.992Z,4.40
2023-05-10T17:18:05.368Z,4.10
2023-05-10T17:20:31.909Z,5.45
2023-05-10T17:22:58.420Z,6.32
2023-05-10T17:25:24.866Z,6.30
2023-05-10T17:27:51.300Z,3.63
2023-05-10T17:30:22.438Z,6.10
2023-05-10T17:32:48.981Z,3.33
2023-05-10T17:35:15.635Z,4.18
2023-05-10T17:37:42.513Z,4.38
2023-05-10T17:40:09.940Z,5.10
2023-05-10T17:42:36.537Z,6.45
2023-05-10T17:45:03.809Z,4.72
2023-05-10T17:47:31.335Z,5.53
2023-05-10T17:49:57.813Z,6.38
2023-05-10T17:52:24.249Z,7.83
2023-05-10T17:54:51.105Z,6.30
2023-05-10T17:57:17.592Z,5.80
2023-05-10T17:59:44.020Z,8.30
2023-05-10T18:02:10.551Z,5.57
2023-05-10T18:04:39.765Z,8.30
2023-05-10T18:07:06.641Z,5.93
2023-05-10T18:09:34.034Z,5.65
2023-05-10T18:12:02.575Z,6.95
2023-05-10T18:14:40.023Z,7.00
2023-05-10T18:17:08.036Z,6.73
2023-05-10T18:19:34.666Z,6.65
2023-05-10T18:22:01.217Z,7.03
2023-05-10T18:24:38.398Z,7.68
2023-05-10T18:27:06.766Z,8.77
2023-05-10T18:29:33.278Z,9.23
2023-05-10T18:31:59.702Z,8.10
2023-05-10T18:34:26.344Z,10.15
2023-05-10T18:36:53.113Z,7.63
2023-05-10T18:39:19.637Z,8.18
2023-05-10T18:41:46.268Z,7.40
2023-05-10T18:44:12.668Z,10.73
2023-05-10T18:46:39.246Z,9.40
2023-05-10T18:49:06.529Z,8.65
2023-05-10T18:51:33.051Z,7.60
2023-05-10T18:53:59.472Z,9.03
2023-05-10T18:56:25.897Z,8.38
2023-05-10T18:58:52.592Z,9.70
2023-05-10T19:01:19.012Z,9.35
2023-05-10T19:03:45.452Z,15.48
2023-05-10T19:06:11.879Z,6.93
2023-05-10T19:08:38.367Z,13.18
2023-05-10T19:11:04.803Z,10.95
2023-05-10T19:13:31.167Z,9.07
2023-05-10T19:16:06.065Z,10.60
2023-05-10T19:18:34.081Z,8.43
2023-05-10T19:21:04.517Z,8.82
2023-05-10T19:23:34.832Z,9.68
2023-05-10T19:26:01.489Z,11.20
2023-05-10T19:28:27.931Z,8.90
2023-05-10T19:30:54.423Z,11.47
2023-05-10T19:33:20.974Z,11.02
2023-05-10T19:35:50.056Z,10.70
2023-05-10T19:38:16.517Z,11.55
2023-05-10T19:40:43.381Z,8.90
2023-05-10T19:43:09.800Z,11.57
2023-05-10T19:45:38.928Z,8.45
2023-05-10T19:48:06.007Z,11.57
2023-05-10T19:50:32.446Z,8.93
2023-05-10T19:53:00.396Z,10.75
2023-05-10T19:55:29.582Z,11.87
2023-05-10T19:57:56.655Z,10.05
2023-05-10T20:00:24.916Z,11.32
2023-05-10T20:02:51.576Z,12.23
2023-05-10T20:05:18.454Z,10.00
2023-05-10T20:07:45.186Z,9.17
2023-05-10T20:10:11.945Z,9.70
2023-05-10T20:12:38.426Z,12.68
2023-05-10T20:15:06.836Z,11.80
2023-05-10T20:17:33.664Z,9.77
2023-05-10T20:20:00.177Z,12.03
2023-05-10T20:22:26.610Z,9.40
2023-05-10T20:24:55.766Z,8.70
2023-05-10T20:27:22.582Z,11.63
2023-05-10T20:29:49.024Z,9.30
2023-05-10T20:32:15.574Z,9.80
2023-05-10T20:34:42.004Z,11.57
2023-05-10T20:37:08.431Z,9.02
2023-05-10T20:39:34.817Z,8.43
2023-05-10T20:42:01.238Z,11.95
2023-05-10T20:44:27.601Z,10.57
2023-05-10T20:46:54.117Z,9.95
2023-05-10T20:49:20.525Z,9.73
2023-05-10T20:51:46.964Z,9.52
2023-05-10T20:54:13.324Z,9.93
2023-05-10T20:56:39.988Z,9.07
2023-05-10T20:59:06.422Z,10.30
2023-05-10T21:01:32.911Z,10.55
2023-05-10T21:03:59.320Z,13.40
2023-05-10T21:06:25.837Z,13.20
2023-05-10T21:08:52.212Z,13.00
2023-05-10T21:11:18.567Z,11.32
2023-05-10T21:13:44.917Z,12.38
2023-05-10T21:16:11.378Z,13.18
2023-05-10T21:18:37.915Z,13.27
2023-05-10T21:21:04.341Z,11.10
2023-05-10T21:23:32.478Z,9.27
2023-05-10T21:26:03.344Z,12.43
2023-05-10T21:28:29.916Z,16.35
2023-05-10T21:30:56.693Z,9.52
2023-05-10T21:33:23.825Z,10.70
2023-05-10T21:35:50.421Z,11.20
2023-05-10T21:38:16.885Z,12.77
2023-05-10T21:40:43.285Z,17.20
2023-05-10T21:43:11.124Z,13.77
2023-05-10T21:45:37.732Z,14.17
2023-05-10T21:48:04.225Z,14.23
2023-05-10T21:50:30.757Z,11.48
2023-05-10T21:52:57.703Z,10.32
2023-05-10T21:55:24.311Z,14.27
2023-05-10T21:57:51.186Z,10.83
2023-05-10T22:00:19.321Z,12.85
2023-05-10T22:02:46.733Z,12.57
2023-05-10T22:05:13.414Z,11.60
2023-05-10T22:07:39.889Z,11.68
2023-05-10T22:10:07.909Z,11.70
2023-05-10T22:12:34.305Z,11.95
2023-05-10T22:15:10.344Z,11.38
2023-05-10T22:17:39.297Z,11.30
2023-05-10T22:20:09.257Z,12.40
2023-05-10T22:22:36.604Z,13.10
2023-05-10T22:25:03.818Z,12.55
2023-05-10T22:27:30.224Z,12.43
2023-05-10T22:29:56.789Z,10.98
2023-05-10T22:32:23.169Z,11.70
2023-05-10T22:34:49.580Z,11.20
2023-05-10T22:37:17.867Z,14.65
2023-05-10T22:39:48.889Z,14.63
2023-05-10T22:42:15.901Z,12.88
2023-05-10T22:44:43.122Z,12.63
2023-05-10T22:47:09.759Z,9.97
2023-05-10T22:49:36.470Z,11.75
2023-05-10T22:52:02.911Z,12.00
2023-05-10T22:54:29.389Z,13.30
2023-05-10T22:56:56.496Z,15.77
2023-05-10T22:59:23.193Z,14.47
2023-05-10T23:01:49.678Z,13.65
2023-05-10T23:04:16.151Z,13.63
2023-05-10T23:06:42.619Z,13.50
2023-05-10T23:09:09.810Z,14.57
2023-05-10T23:11:36.459Z,15.60
2023-05-10T23:14:03.066Z,14.45
2023-05-10T23:16:29.570Z,13.25
2023-05-10T23:18:56.128Z,16.58
2023-05-10T23:21:22.693Z,14.95
2023-05-10T23:23:49.587Z,16.77
2023-05-10T23:26:16.250Z,16.42
2023-05-10T23:28:42.633Z,14.07
2023-05-10T23:31:09.026Z,17.20
2023-05-10T23:33:35.418Z,17.60
2023-05-10T23:36:01.778Z,13.17
2023-05-10T23:38:28.170Z,16.80
2023-05-10T23:40:54.922Z,16.45
2023-05-10T23:43:21.773Z,15.98
2023-05-10T23:45:58.482Z,15.82
2023-05-10T23:48:25.032Z,16.50
2023-05-10T23:50:51.725Z,16.02
2023-05-10T23:53:18.706Z,18.38
2023-05-10T23:55:45.538Z,16.65
2023-05-10T23:58:12.454Z,18.73
